sensor_id;sensor_type;location;lat;lon;timestamp;P1;durP1;ratioP1;P2;durP2;ratioP2
16015;SDS011;8112;53.592;10.184;2023-05-10T00:04:32;7.17;;;3.90;;
16015;SDS011;8112;53.592;10.184;2023-05-10T00:09:34;4.97;;;3.67;;
16015;SDS011;8112;53.592;10.184;2023-05-10T00:14:38;4.63;;;4.13;;
16015;SDS011;8112;53.592;10.184;2023-05-10T00:19:41;6.03;;;3.77;;
16015;SDS011;8112;53.592;10.184;2023-05-10T00:24:43;6.30;;;4.03;;
16015;SDS011;8112;53.592;10.184;2023-05-10T00:29:45;4.57;;;4.17;;
16015;SDS011;8112;53.592;10.184;2023-05-10T00:34:49;5.67;;;4.33;;
16015;SDS011;8112;53.592;10.184;2023-05-10T00:39:51;5.50;;;4.10;;
16015;SDS011;8112;53.592;10.184;2023-05-10T00:44:53;4.37;;;4.00;;
16015;SDS011;8112;53.592;10.184;2023-05-10T00:49:56;6.90;;;3.90;;
16015;SDS011;8112;53.592;10.184;2023-05-10T00:54:59;4.53;;;4.00;;
16015;SDS011;8112;53.592;10.184;2023-05-10T01:00:06;5.10;;;4.23;;
16015;SDS011;8112;53.592;10.184;2023-05-10T01:05:11;6.63;;;3.97;;
16015;SDS011;8112;53.592;10.184;2023-05-10T01:10:14;5.07;;;4.17;;
16015;SDS011;8112;53.592;10.184;2023-05-10T01:15:16;7.10;;;4.63;;
16015;SDS011;8112;53.592;10.184;2023-05-10T01:20:20;7.70;;;4.07;;
16015;SDS011;8112;53.592;10.184;2023-05-10T01:25:28;4.90;;;4.20;;
16015;SDS011;8112;53.592;10.184;2023-05-10T01:30:57;4.33;;;3.83;;
16015;SDS011;8112;53.592;10.184;2023-05-10T01:36:14;5.33;;;3.87;;
16015;SDS011;8112;53.592;10.184;2023-05-10T01:41:28;4.87;;;4.40;;
16015;SDS011;8112;53.592;10.184;2023-05-10T01:46:38;5.53;;;4.50;;
16015;SDS011;8112;53.592;10.184;2023-05-10T01:51:44;6.17;;;4.40;;
16015;SDS011;8112;53.592;10.184;2023-05-10T01:56:55;7.67;;;4.13;;
16015;SDS011;8112;53.592;10.184;2023-05-10T02:02:00;6.33;;;4.50;;
16015;SDS011;8112;53.592;10.184;2023-05-10T02:07:05;6.70;;;4.20;;
16015;SDS011;8112;53.592;10.184;2023-05-10T02:12:08;4.47;;;3.97;;
16015;SDS011;8112;53.592;10.184;2023-05-10T02:17:10;6.23;;;4.60;;
16015;SDS011;8112;53.592;10.184;2023-05-10T02:22:16;6.73;;;4.20;;
16015;SDS011;8112;53.592;10.184;2023-05-10T02:27:20;4.63;;;3.80;;
16015;SDS011;8112;53.592;10.184;2023-05-10T02:32:26;6.03;;;4.53;;
16015;SDS011;8112;53.592;10.184;2023-05-10T02:37:32;4.70;;;4.30;;
16015;SDS011;8112;53.592;10.184;2023-05-10T02:42:37;5.10;;;4.57;;
16015;SDS011;8112;53.592;10.184;2023-05-10T02:47:42;5.90;;;4.00;;
16015;SDS011;8112;53.592;10.184;2023-05-10T02:52:46;6.57;;;4.30;;
16015;SDS011;8112;53.592;10.184;2023-05-10T02:57:58;5.60;;;4.60;;
16015;SDS011;8112;53.592;10.184;2023-05-10T03:03:02;4.47;;;4.17;;
16015;SDS011;8112;53.592;10.184;2023-05-10T03:08:06;4.77;;;4.37;;
16015;SDS011;8112;53.592;10.184;2023-05-10T03:13:10;5.80;;;4.43;;
16015;SDS011;8112;53.592;10.184;2023-05-10T03:18:18;4.33;;;3.93;;
16015;SDS011;8112;53.592;10.184;2023-05-10T03:23:27;6.20;;;4.70;;
16015;SDS011;8112;53.592;10.184;2023-05-10T03:28:36;5.60;;;4.83;;
16015;SDS011;8112;53.592;10.184;2023-05-10T03:33:45;4.93;;;4.47;;
16015;SDS011;8112;53.592;10.184;2023-05-10T03:38:54;9.20;;;4.90;;
16015;SDS011;8112;53.592;10.184;2023-05-10T03:43:56;5.27;;;4.70;;
16015;SDS011;8112;53.592;10.184;2023-05-10T03:48:58;5.10;;;4.57;;
16015;SDS011;8112;53.592;10.184;2023-05-10T03:54:01;6.13;;;4.97;;
16015;SDS011;8112;53.592;10.184;2023-05-10T03:59:03;5.20;;;4.60;;
16015;SDS011;8112;53.592;10.184;2023-05-10T04:04:07;9.63;;;4.37;;
16015;SDS011;8112;53.592;10.184;2023-05-10T04:09:10;5.33;;;4.27;;
16015;SDS011;8112;53.592;10.184;2023-05-10T04:14:13;5.77;;;5.13;;
16015;SDS011;8112;53.592;10.184;2023-05-10T04:19:15;5.23;;;4.60;;
16015;SDS011;8112;53.592;10.184;2023-05-10T04:24:19;5.00;;;4.47;;
16015;SDS011;8112;53.592;10.184;2023-05-10T04:29:21;5.67;;;4.70;;
16015;SDS011;8112;53.592;10.184;2023-05-10T04:34:22;6.63;;;4.73;;
16015;SDS011;8112;53.592;10.184;2023-05-10T04:39:28;5.60;;;4.80;;
16015;SDS011;8112;53.592;10.184;2023-05-10T04:44:31;7.20;;;4.63;;
16015;SDS011;8112;53.592;10.184;2023-05-10T04:49:34;6.73;;;4.90;;
16015;SDS011;8112;53.592;10.184;2023-05-10T04:54:38;7.43;;;4.70;;
16015;SDS011;8112;53.592;10.184;2023-05-10T04:59:39;5.20;;;4.70;;
16015;SDS011;8112;53.592;10.184;2023-05-10T05:04:42;7.57;;;4.80;;
16015;SDS011;8112;53.592;10.184;2023-05-10T05:09:46;6.63;;;4.93;;
16015;SDS011;8112;53.592;10.184;2023-05-10T05:14:48;5.80;;;4.83;;
16015;SDS011;8112;53.592;10.184;2023-05-10T05:19:51;4.93;;;4.53;;
16015;SDS011;8112;53.592;10.184;2023-05-10T05:24:55;5.40;;;5.00;;
16015;SDS011;8112;53.592;10.184;2023-05-10T05:29:58;5.70;;;5.10;;
16015;SDS011;8112;53.592;10.184;2023-05-10T05:35:00;5.57;;;4.70;;
16015;SDS011;8112;53.592;10.184;2023-05-10T05:40:05;10.43;;;5.17;;
16015;SDS011;8112;53.592;10.184;2023-05-10T05:45:07;8.20;;;5.23;;
16015;SDS011;8112;53.592;10.184;2023-05-10T05:50:13;4.97;;;4.50;;
16015;SDS011;8112;53.592;10.184;2023-05-10T05:55:16;5.90;;;5.20;;
16015;SDS011;8112;53.592;10.184;2023-05-10T06:00:19;4.93;;;4.53;;
16015;SDS011;8112;53.592;10.184;2023-05-10T06:05:21;4.93;;;4.50;;
16015;SDS011;8112;53.592;10.184;2023-05-10T06:10:25;7.57;;;4.37;;
16015;SDS011;8112;53.592;10.184;2023-05-10T06:15:27;4.90;;;4.50;;
16015;SDS011;8112;53.592;10.184;2023-05-10T06:20:29;5.30;;;4.80;;
16015;SDS011;8112;53.592;10.184;2023-05-10T06:25:33;5.10;;;4.60;;
16015;SDS011;8112;53.592;10.184;2023-05-10T06:30:35;6.67;;;4.60;;
16015;SDS011;8112;53.592;10.184;2023-05-10T06:35:38;8.03;;;4.90;;
16015;SDS011;8112;53.592;10.184;2023-05-10T06:40:44;6.27;;;3.93;;
16015;SDS011;8112;53.592;10.184;2023-05-10T06:45:47;5.00;;;4.50;;
16015;SDS011;8112;53.592;10.184;2023-05-10T06:50:49;4.53;;;4.13;;
16015;SDS011;8112;53.592;10.184;2023-05-10T06:55:52;6.77;;;4.50;;
16015;SDS011;8112;53.592;10.184;2023-05-10T07:00:54;4.83;;;4.23;;
16015;SDS011;8112;53.592;10.184;2023-05-10T07:05:59;8.23;;;5.10;;
16015;SDS011;8112;53.592;10.184;2023-05-10T07:11:05;8.83;;;5.80;;
16015;SDS011;8112;53.592;10.184;2023-05-10T07:16:08;12.70;;;5.17;;
16015;SDS011;8112;53.592;10.184;2023-05-10T07:21:11;7.07;;;4.23;;
16015;SDS011;8112;53.592;10.184;2023-05-10T07:26:14;7.17;;;4.60;;
16015;SDS011;8112;53.592;10.184;2023-05-10T07:31:16;5.30;;;4.80;;
16015;SDS011;8112;53.592;10.184;2023-05-10T07:36:18;5.17;;;4.67;;
16015;SDS011;8112;53.592;10.184;2023-05-10T07:41:21;4.50;;;4.10;;
16015;SDS011;8112;53.592;10.184;2023-05-10T07:46:23;5.63;;;4.13;;
16015;SDS011;8112;53.592;10.184;2023-05-10T07:51:25;4.50;;;4.20;;
16015;SDS011;8112;53.592;10.184;2023-05-10T07:56:30;5.53;;;4.80;;
16015;SDS011;8112;53.592;10.184;2023-05-10T08:01:33;4.77;;;4.37;;
16015;SDS011;8112;53.592;10.184;2023-05-10T08:06:35;4.80;;;4.40;;
16015;SDS011;8112;53.592;10.184;2023-05-10T08:11:39;7.80;;;4.77;;
16015;SDS011;8112;53.592;10.184;2023-05-10T08:16:41;7.27;;;4.40;;
16015;SDS011;8112;53.592;10.184;2023-05-10T08:21:43;5.53;;;4.77;;
16015;SDS011;8112;53.592;10.184;2023-05-10T08:26:47;5.30;;;4.90;;
16015;SDS011;8112;53.592;10.184;2023-05-10T08:31:49;7.80;;;4.73;;
16015;SDS011;8112;53.592;10.184;2023-05-10T08:36:50;4.40;;;4.00;;
16015;SDS011;8112;53.592;10.184;2023-05-10T08:41:54;4.93;;;4.10;;
16015;SDS011;8112;53.592;10.184;2023-05-10T08:46:59;5.57;;;4.47;;
16015;SDS011;8112;53.592;10.184;2023-05-10T08:52:04;6.00;;;4.27;;
16015;SDS011;8112;53.592;10.184;2023-05-10T08:57:10;6.03;;;4.50;;
16015;SDS011;8112;53.592;10.184;2023-05-10T09:02:12;18.90;;;5.83;;
16015;SDS011;8112;53.592;10.184;2023-05-10T09:07:15;11.83;;;5.20;;
16015;SDS011;8112;53.592;10.184;2023-05-10T09:12:19;6.73;;;4.30;;
16015;SDS011;8112;53.592;10.184;2023-05-10T09:17:23;6.43;;;4.83;;
16015;SDS011;8112;53.592;10.184;2023-05-10T09:22:29;27.27;;;7.33;;
16015;SDS011;8112;53.592;10.184;2023-05-10T09:27:36;7.40;;;5.60;;
16015;SDS011;8112;53.592;10.184;2023-05-10T09:32:39;37.17;;;9.90;;
16015;SDS011;8112;53.592;10.184;2023-05-10T09:37:43;8.57;;;5.00;;
16015;SDS011;8112;53.592;10.184;2023-05-10T09:43:00;6.37;;;5.23;;
16015;SDS011;8112;53.592;10.184;2023-05-10T09:48:03;5.73;;;5.03;;
16015;SDS011;8112;53.592;10.184;2023-05-10T09:53:05;20.30;;;6.83;;
16015;SDS011;8112;53.592;10.184;2023-05-10T09:58:10;10.63;;;5.03;;
16015;SDS011;8112;53.592;10.184;2023-05-10T10:03:13;7.83;;;5.07;;
16015;SDS011;8112;53.592;10.184;2023-05-10T10:08:15;7.60;;;5.53;;
16015;SDS011;8112;53.592;10.184;2023-05-10T10:13:20;6.13;;;5.60;;
16015;SDS011;8112;53.592;10.184;2023-05-10T10:18:23;8.37;;;5.70;;
16015;SDS011;8112;53.592;10.184;2023-05-10T10:23:29;6.23;;;5.47;;
16015;SDS011;8112;53.592;10.184;2023-05-10T10:28:35;8.60;;;6.37;;
16015;SDS011;8112;53.592;10.184;2023-05-10T10:33:55;7.73;;;6.93;;
16015;SDS011;8112;53.592;10.184;2023-05-10T10:39:07;8.43;;;7.53;;
16015;SDS011;8112;53.592;10.184;2023-05-10T10:44:27;7.93;;;7.23;;
16015;SDS011;8112;53.592;10.184;2023-05-10T10:49:48;9.73;;;8.00;;
16015;SDS011;8112;53.592;10.184;2023-05-10T10:54:51;9.97;;;8.97;;
16015;SDS011;8112;53.592;10.184;2023-05-10T11:05:38;10.70;;;9.70;;
16015;SDS011;8112;53.592;10.184;2023-05-10T11:11:01;10.17;;;9.27;;
16015;SDS011;8112;53.592;10.184;2023-05-10T11:16:22;11.47;;;10.43;;
16015;SDS011;8112;53.592;10.184;2023-05-10T11:21:27;11.33;;;10.23;;
16015;SDS011;8112;53.592;10.184;2023-05-10T11:26:30;12.97;;;11.67;;
16015;SDS011;8112;53.592;10.184;2023-05-10T11:31:34;12.37;;;10.30;;
16015;SDS011;8112;53.592;10.184;2023-05-10T11:36:36;10.00;;;9.13;;
16015;SDS011;8112;53.592;10.184;2023-05-10T11:41:39;10.10;;;9.20;;
16015;SDS011;8112;53.592;10.184;2023-05-10T11:46:42;10.30;;;9.40;;
16015;SDS011;8112;53.592;10.184;2023-05-10T11:51:44;11.33;;;10.13;;
16015;SDS011;8112;53.592;10.184;2023-05-10T11:56:47;10.30;;;9.30;;
16015;SDS011;8112;53.592;10.184;2023-05-10T12:01:52;10.93;;;9.93;;
16015;SDS011;8112;53.592;10.184;2023-05-10T12:06:56;10.57;;;9.57;;
16015;SDS011;8112;53.592;10.184;2023-05-10T12:11:58;11.00;;;10.10;;
16015;SDS011;8112;53.592;10.184;2023-05-10T12:17:02;11.53;;;10.53;;
16015;SDS011;8112;53.592;10.184;2023-05-10T12:22:04;12.03;;;10.93;;
16015;SDS011;8112;53.592;10.184;2023-05-10T12:27:07;11.27;;;10.27;;
16015;SDS011;8112;53.592;10.184;2023-05-10T12:32:11;11.57;;;10.57;;
16015;SDS011;8112;53.592;10.184;2023-05-10T12:37:13;11.63;;;10.60;;
16015;SDS011;8112;53.592;10.184;2023-05-10T12:42:14;11.17;;;10.13;;
16015;SDS011;8112;53.592;10.184;2023-05-10T12:47:19;13.43;;;11.33;;
16015;SDS011;8112;53.592;10.184;2023-05-10T12:52:20;10.70;;;9.77;;
16015;SDS011;8112;53.592;10.184;2023-05-10T12:57:25;11.10;;;10.20;;
16015;SDS011;8112;53.592;10.184;2023-05-10T13:02:32;10.77;;;9.77;;
16015;SDS011;8112;53.592;10.184;2023-05-10T13:07:34;9.80;;;9.00;;
16015;SDS011;8112;53.592;10.184;2023-05-10T13:12:36;9.10;;;8.30;;
16015;SDS011;8112;53.592;10.184;2023-05-10T13:17:39;9.17;;;8.40;;
16015;SDS011;8112;53.592;10.184;2023-05-10T13:22:42;8.80;;;8.00;;
16015;SDS011;8112;53.592;10.184;2023-05-10T13:27:45;8.33;;;7.73;;
16015;SDS011;8112;53.592;10.184;2023-05-10T13:32:48;8.67;;;8.07;;
16015;SDS011;8112;53.592;10.184;2023-05-10T13:37:50;9.10;;;8.40;;
16015;SDS011;8112;53.592;10.184;2023-05-10T13:42:53;8.83;;;8.03;;
16015;SDS011;8112;53.592;10.184;2023-05-10T13:47:56;8.03;;;7.43;;
16015;SDS011;8112;53.592;10.184;2023-05-10T13:52:58;8.33;;;7.60;;
16015;SDS011;8112;53.592;10.184;2023-05-10T13:58:04;6.87;;;6.37;;
16015;SDS011;8112;53.592;10.184;2023-05-10T14:03:10;6.87;;;6.37;;
16015;SDS011;8112;53.592;10.184;2023-05-10T14:08:12;7.10;;;6.50;;
16015;SDS011;8112;53.592;10.184;2023-05-10T14:13:14;7.17;;;6.47;;
16015;SDS011;8112;53.592;10.184;2023-05-10T14:18:20;7.43;;;6.83;;
16015;SDS011;8112;53.592;10.184;2023-05-10T14:23:26;7.50;;;6.90;;
16015;SDS011;8112;53.592;10.184;2023-05-10T14:28:43;6.57;;;6.07;;
16015;SDS011;8112;53.592;10.184;2023-05-10T14:33:47;6.30;;;5.80;;
16015;SDS011;8112;53.592;10.184;2023-05-10T14:38:49;5.57;;;5.07;;
16015;SDS011;8112;53.592;10.184;2023-05-10T14:43:51;5.47;;;5.07;;
16015;SDS011;8112;53.592;10.184;2023-05-10T14:48:55;6.03;;;5.53;;
16015;SDS011;8112;53.592;10.184;2023-05-10T14:53:56;6.20;;;5.63;;
16015;SDS011;8112;53.592;10.184;2023-05-10T14:59:00;6.30;;;5.80;;
16015;SDS011;8112;53.592;10.184;2023-05-10T15:04:05;7.20;;;6.63;;
16015;SDS011;8112;53.592;10.184;2023-05-10T15:09:07;6.70;;;6.20;;
16015;SDS011;8112;53.592;10.184;2023-05-10T15:14:09;7.87;;;7.17;;
16015;SDS011;8112;53.592;10.184;2023-05-10T15:19:12;8.30;;;7.57;;
16015;SDS011;8112;53.592;10.184;2023-05-10T15:24:14;7.37;;;6.77;;
16015;SDS011;8112;53.592;10.184;2023-05-10T15:29:16;6.90;;;6.40;;
16015;SDS011;8112;53.592;10.184;2023-05-10T15:34:21;6.90;;;6.30;;
16015;SDS011;8112;53.592;10.184;2023-05-10T15:39:27;7.23;;;6.63;;
16015;SDS011;8112;53.592;10.184;2023-05-10T15:44:33;7.07;;;6.43;;
16015;SDS011;8112;53.592;10.184;2023-05-10T15:49:36;6.67;;;5.67;;
16015;SDS011;8112;53.592;10.184;2023-05-10T15:54:38;6.20;;;5.70;;
16015;SDS011;8112;53.592;10.184;2023-05-10T15:59:41;6.70;;;6.07;;
16015;SDS011;8112;53.592;10.184;2023-05-10T16:04:45;6.03;;;5.60;;
16015;SDS011;8112;53.592;10.184;2023-05-10T16:09:47;6.80;;;6.30;;
16015;SDS011;8112;53.592;10.184;2023-05-10T16:14:52;6.00;;;5.50;;
16015;SDS011;8112;53.592;10.184;2023-05-10T16:19:55;6.53;;;6.03;;
16015;SDS011;8112;53.592;10.184;2023-05-10T16:24:57;7.03;;;6.50;;
16015;SDS011;8112;53.592;10.184;2023-05-10T16:30:03;6.90;;;6.13;;
16015;SDS011;8112;53.592;10.184;2023-05-10T16:35:09;6.50;;;6.00;;
16015;SDS011;8112;53.592;10.184;2023-05-10T16:40:12;6.67;;;6.07;;
16015;SDS011;8112;53.592;10.184;2023-05-10T16:45:15;6.43;;;5.83;;
16015;SDS011;8112;53.592;10.184;2023-05-10T16:50:18;7.13;;;6.53;;
16015;SDS011;8112;53.592;10.184;2023-05-10T16:55:20;7.20;;;6.53;;
16015;SDS011;8112;53.592;10.184;2023-05-10T17:00:22;7.70;;;7.00;;
16015;SDS011;8112;53.592;10.184;2023-05-10T17:05:26;7.23;;;6.63;;
16015;SDS011;8112;53.592;10.184;2023-05-10T17:10:28;8.13;;;7.20;;
16015;SDS011;8112;53.592;10.184;2023-05-10T17:15:29;7.90;;;7.30;;
16015;SDS011;8112;53.592;10.184;2023-05-10T17:20:34;7.73;;;7.13;;
16015;SDS011;8112;53.592;10.184;2023-05-10T17:25:36;7.13;;;6.53;;
16015;SDS011;8112;53.592;10.184;2023-05-10T17:30:38;7.03;;;6.40;;
16015;SDS011;8112;53.592;10.184;2023-05-10T17:35:44;7.00;;;6.40;;
16015;SDS011;8112;53.592;10.184;2023-05-10T17:40:46;6.97;;;6.27;;
16015;SDS011;8112;53.592;10.184;2023-05-10T17:45:48;7.57;;;6.97;;
16015;SDS011;8112;53.592;10.184;2023-05-10T17:50:51;7.13;;;6.53;;
16015;SDS011;8112;53.592;10.184;2023-05-10T17:55:53;6.33;;;5.67;;
16015;SDS011;8112;53.592;10.184;2023-05-10T18:00:58;6.03;;;5.53;;
16015;SDS011;8112;53.592;10.184;2023-05-10T18:06:02;6.23;;;5.73;;
16015;SDS011;8112;53.592;10.184;2023-05-10T18:11:04;6.17;;;5.67;;
16015;SDS011;8112;53.592;10.184;2023-05-10T18:16:06;5.60;;;5.00;;
16015;SDS011;8112;53.592;10.184;2023-05-10T18:21:13;7.03;;;6.43;;
16015;SDS011;8112;53.592;10.184;2023-05-10T18:26:19;6.70;;;6.20;;
16015;SDS011;8112;53.592;10.184;2023-05-10T18:31:21;7.20;;;6.50;;
16015;SDS011;8112;53.592;10.184;2023-05-10T18:36:25;7.13;;;6.53;;
16015;SDS011;8112;53.592;10.184;2023-05-10T18:41:27;7.27;;;6.67;;
16015;SDS011;8112;53.592;10.184;2023-05-10T18:46:30;7.70;;;7.03;;
16015;SDS011;8112;53.592;10.184;2023-05-10T18:51:34;8.30;;;7.60;;
16015;SDS011;8112;53.592;10.184;2023-05-10T18:56:36;8.07;;;7.47;;
16015;SDS011;8112;53.592;10.184;2023-05-10T19:01:39;7.40;;;6.80;;
16015;SDS011;8112;53.592;10.184;2023-05-10T19:06:43;8.40;;;7.70;;
16015;SDS011;8112;53.592;10.184;2023-05-10T19:11:45;8.80;;;8.00;;
16015;SDS011;8112;53.592;10.184;2023-05-10T19:16:47;9.23;;;8.43;;
16015;SDS011;8112;53.592;10.184;2023-05-10T19:21:51;9.70;;;8.70;;
16015;SDS011;8112;53.592;10.184;2023-05-10T19:26:53;8.77;;;7.90;;
16015;SDS011;8112;53.592;10.184;2023-05-10T19:31:56;9.87;;;8.97;;
16015;SDS011;8112;53.592;10.184;2023-05-10T19:37:01;8.93;;;8.13;;
16015;SDS011;8112;53.592;10.184;2023-05-10T19:42:03;7.87;;;7.17;;
16015;SDS011;8112;53.592;10.184;2023-05-10T19:47:04;7.47;;;6.83;;
16015;SDS011;8112;53.592;10.184;2023-05-10T19:52:10;7.63;;;6.93;;
16015;SDS011;8112;53.592;10.184;2023-05-10T19:57:13;7.43;;;6.73;;
16015;SDS011;8112;53.592;10.184;2023-05-10T20:02:16;7.90;;;7.27;;
16015;SDS011;8112;53.592;10.184;2023-05-10T20:07:22;8.63;;;7.83;;
16015;SDS011;8112;53.592;10.184;2023-05-10T20:12:27;7.80;;;7.10;;
16015;SDS011;8112;53.592;10.184;2023-05-10T20:17:31;8.73;;;7.93;;
16015;SDS011;8112;53.592;10.184;2023-05-10T20:22:35;7.13;;;6.53;;
16015;SDS011;8112;53.592;10.184;2023-05-10T20:27:37;8.10;;;7.50;;
16015;SDS011;8112;53.592;10.184;2023-05-10T20:32:39;9.40;;;8.27;;
16015;SDS011;8112;53.592;10.184;2023-05-10T20:37:43;10.13;;;9.23;;
16015;SDS011;8112;53.592;10.184;2023-05-10T20:42:47;10.43;;;9.43;;
16015;SDS011;8112;53.592;10.184;2023-05-10T20:47:52;11.07;;;10.17;;
16015;SDS011;8112;53.592;10.184;2023-05-10T20:52:55;10.67;;;9.83;;
16015;SDS011;8112;53.592;10.184;2023-05-10T20:57:58;11.97;;;11.07;;
16015;SDS011;8112;53.592;10.184;2023-05-10T21:03:00;14.67;;;13.47;;
16015;SDS011;8112;53.592;10.184;2023-05-10T21:08:06;15.00;;;13.80;;
16015;SDS011;8112;53.592;10.184;2023-05-10T21:13:08;15.97;;;14.53;;
16015;SDS011;8112;53.592;10.184;2023-05-10T21:18:10;16.23;;;14.90;;
16015;SDS011;8112;53.592;10.184;2023-05-10T21:23:13;15.87;;;14.47;;
16015;SDS011;8112;53.592;10.184;2023-05-10T21:28:15;16.57;;;15.27;;
16015;SDS011;8112;53.592;10.184;2023-05-10T21:33:17;16.27;;;14.87;;
16015;SDS011;8112;53.592;10.184;2023-05-10T21:38:21;15.07;;;13.77;;
16015;SDS011;8112;53.592;10.184;2023-05-10T21:43:22;13.87;;;12.67;;
16015;SDS011;8112;53.592;10.184;2023-05-10T21:48:25;14.53;;;13.13;;
16015;SDS011;8112;53.592;10.184;2023-05-10T21:53:28;16.40;;;14.70;;
16015;SDS011;8112;53.592;10.184;2023-05-10T21:58:30;17.07;;;15.37;;
16015;SDS011;8112;53.592;10.184;2023-05-10T22:03:32;19.70;;;17.70;;
16015;SDS011;8112;53.592;10.184;2023-05-10T22:08:35;18.03;;;16.23;;
16015;SDS011;8112;53.592;10.184;2023-05-10T22:13:38;17.90;;;16.20;;
16015;SDS011;8112;53.592;10.184;2023-05-10T22:18:41;18.23;;;16.37;;
16015;SDS011;8112;53.592;10.184;2023-05-10T22:23:45;17.00;;;15.20;;
16015;SDS011;8112;53.592;10.184;2023-05-10T22:28:47;17.53;;;15.73;;
16015;SDS011;8112;53.592;10.184;2023-05-10T22:33:49;21.87;;;18.77;;
16015;SDS011;8112;53.592;10.184;2023-05-10T22:38:53;20.33;;;18.13;;
16015;SDS011;8112;53.592;10.184;2023-05-10T22:43:56;21.37;;;18.73;;
16015;SDS011;8112;53.592;10.184;2023-05-10T22:48:59;21.47;;;19.07;;
16015;SDS011;8112;53.592;10.184;2023-05-10T22:54:03;21.80;;;18.70;;
16015;SDS011;8112;53.592;10.184;2023-05-10T22:59:06;22.20;;;19.90;;
16015;SDS011;8112;53.592;10.184;2023-05-10T23:04:08;22.90;;;19.50;;
16015;SDS011;8112;53.592;10.184;2023-05-10T23:09:11;23.47;;;20.40;;
16015;SDS011;8112;53.592;10.184;2023-05-10T23:14:13;22.67;;;20.27;;
16015;SDS011;8112;53.592;10.184;2023-05-10T23:19:15;23.23;;;20.10;;
16015;SDS011;8112;53.592;10.184;2023-05-10T23:24:18;23.00;;;20.37;;
16015;SDS011;8112;53.592;10.184;2023-05-10T23:29:20;23.37;;;19.33;;
16015;SDS011;8112;53.592;10.184;2023-05-10T23:34:24;22.50;;;18.23;;
16015;SDS011;8112;53.592;10.184;2023-05-10T23:39:27;21.07;;;18.30;;
16015;SDS011;8112;53.592;10.184;2023-05-10T23:44:31;20.13;;;17.77;;
16015;SDS011;8112;53.592;10.184;2023-05-10T23:49:33;21.63;;;16.90;;
16015;SDS011;8112;53.592;10.184;2023-05-10T23:54:36;20.97;;;17.90;;
16015;SDS011;8112;53.592;10.184;2023-05-10T23:59:38;20.63;;;17.20;;
